Portada
METAR-TAF:

METAR-TAF

Aeropuertos :

Rarotonga, Islas Cook

Aeropuerto Internacional Rarotonga

latitud: 21-12S, longitud: 159-49W, altitud: 7 m

Observación

El informe se hizo hace 1 hora y 2 minutos, a las 05:00 UTC
Viento 15 kt del este con ráfagas de 23 kt
Temperatura 24°C
Humedad 69%
Presión 1019 hPa
Visibilidad 10 km o más
Nubes dispersas a una altura de 2100 ft
Cielo nuboso a una altura de 4500 ft

METAR: NCRG 170500Z 08015G23KT 9999 SCT021 BKN045 24/18 Q1019

Hora: 20:02 (06:02 UTC)

Pronóstico

El informe se hizo hace 42 minutos, a las 05:20 UTC
Pronóstico válido del 17 a las 06 UTC al 18 a las 06 UTC
Viento 15 kt del este
Visibilidad 10 km o más
Nubes dispersas a una altura de 2500 ft
Cielo nuboso a una altura de 4500 ft

TAF: NCRG 170520Z 1706/1806 08015KT 9999 SCT025 BKN045

Observaciones y pronósticos meteorológicos de más de 4000 aeropuertos (mensajes METAR y TAF).

Los puntos amarillos y rojos representan las estaciones disponibles.

Ponga el ratón en el punto deseado para ver el nombre de la estación.

Haga clic para ver las observaciones y los pronósticos meteorológicos.

Para cambiar el mapa : haga clic en los botones verdes con una cruz de color negro para hacer un zoom, en el botón verde con un guión para alejar o en las flechas verdes para mapas adyacentes.


METAR-TAF: